Time;durP1;ratioP1;P1;durP2;ratioP2;P2;SDS_P1;SDS_P2;PMS_P1;PMS_P2;Temp;Humidity;BMP_temperature;BMP_pressure;BME280_temperature;BME280_humidity;BME280_pressure;Samples;Min_cycle;Max_cycle;Signal;HPM_P1;HPM_P2
2023/06/05 00:01:43;;;;;;;18.17;16.58;;;8.60;99.90;;;;;;5041458;28;20036;-77
2023/06/05 00:04:09;;;;;;;19.15;17.45;;;8.60;99.90;;;;;;5046498;28;20090;-77
2023/06/05 00:06:37;;;;;;;17.88;16.17;;;8.50;99.90;;;;;;5049955;28;20036;-77
2023/06/05 00:09:04;;;;;;;17.80;16.10;;;8.50;99.90;;;;;;5036530;28;20552;-77
2023/06/05 00:11:33;;;;;;;18.88;16.88;;;8.40;99.90;;;;;;5027576;28;20422;-77
2023/06/05 00:13:58;;;;;;;17.70;16.10;;;8.40;99.90;;;;;;5025633;28;20119;-77
2023/06/05 00:16:24;;;;;;;17.50;15.80;;;8.30;99.90;;;;;;5017968;28;20123;-77
2023/06/05 00:18:50;;;;;;;21.13;19.02;;;8.20;99.90;;;;;;5035126;28;20037;-77
2023/06/05 00:21:19;;;;;;;17.60;16.02;;;8.20;99.90;;;;;;5008872;28;20040;-77
2023/06/05 00:23:45;;;;;;;20.58;18.45;;;8.20;99.90;;;;;;5026073;28;20036;-77
2023/06/05 00:26:11;;;;;;;19.65;17.77;;;8.00;99.90;;;;;;5034408;28;20522;-77
2023/06/05 00:28:38;;;;;;;19.48;17.67;;;8.00;99.90;;;;;;5034507;28;20072;-77
2023/06/05 00:31:12;;;;;;;19.73;17.80;;;8.00;99.90;;;;;;5024408;28;20077;-77
2023/06/05 00:33:41;;;;;;;20.77;18.88;;;8.00;99.90;;;;;;5033525;28;20052;-77
2023/06/05 00:36:06;;;;;;;18.88;17.23;;;7.90;99.90;;;;;;5022464;28;20049;-77
2023/06/05 00:38:35;;;;;;;21.75;19.65;;;7.90;99.90;;;;;;4998138;28;20064;-77
2023/06/05 00:41:01;;;;;;;21.00;19.08;;;7.80;99.90;;;;;;5051574;28;20044;-77
2023/06/05 00:43:27;;;;;;;21.02;19.17;;;7.90;99.90;;;;;;5024065;28;20073;-77
2023/06/05 00:45:59;;;;;;;19.48;17.67;;;7.80;99.90;;;;;;5048541;28;20135;-78
2023/06/05 00:48:25;;;;;;;21.93;19.57;;;7.80;99.90;;;;;;5018061;28;20037;-77
2023/06/05 00:50:51;;;;;;;19.30;17.55;;;7.70;99.90;;;;;;5021203;28;20045;-78
2023/06/05 00:53:17;;;;;;;21.02;18.92;;;7.70;99.90;;;;;;5021967;28;20048;-77
2023/06/05 00:55:46;;;;;;;19.80;17.85;;;7.70;99.90;;;;;;5029013;28;20037;-77
2023/06/05 00:58:15;;;;;;;21.90;19.70;;;7.60;99.90;;;;;;5050563;28;20042;-77
2023/06/05 01:00:45;;;;;;;20.48;18.58;;;7.60;99.90;;;;;;5034029;28;20040;-77
2023/06/05 01:03:12;;;;;;;21.90;19.73;;;7.60;99.90;;;;;;5014402;28;20037;-77
2023/06/05 01:05:38;;;;;;;20.35;18.35;;;7.50;99.90;;;;;;5025883;28;20131;-78
2023/06/05 01:08:05;;;;;;;21.75;19.63;;;7.50;99.90;;;;;;5016003;28;20574;-77
2023/06/05 01:10:32;;;;;;;19.90;18.10;;;7.50;99.90;;;;;;5013496;28;20049;-77
2023/06/05 01:13:13;;;;;;;22.45;20.15;;;7.40;99.90;;;;;;5021773;28;20045;-78
2023/06/05 01:15:42;;;;;;;20.15;18.45;;;7.40;99.90;;;;;;5021465;28;20112;-78
2023/06/05 01:18:22;;;;;;;18.33;16.63;;;7.40;99.90;;;;;;5033698;28;20048;-78
2023/06/05 01:20:47;;;;;;;21.05;19.05;;;7.40;99.90;;;;;;5017796;28;20041;-78
2023/06/05 01:23:13;;;;;;;19.33;17.52;;;7.30;99.90;;;;;;5018044;28;20392;-78
2023/06/05 01:25:42;;;;;;;21.75;19.75;;;7.30;99.90;;;;;;5022243;28;20106;-77
2023/06/05 01:28:18;;;;;;;22.30;19.98;;;7.30;99.90;;;;;;5041251;28;20045;-77
2023/06/05 01:31:16;;;;;;;22.73;20.40;;;7.20;99.90;;;;;;5057025;28;20094;-77
2023/06/05 01:34:01;;;;;;;22.38;20.17;;;7.20;99.90;;;;;;5043878;28;20036;-77
2023/06/05 01:36:34;;;;;;;21.00;19.20;;;7.20;99.90;;;;;;5057897;28;20145;-78
2023/06/05 01:39:00;;;;;;;21.92;19.83;;;7.10;99.90;;;;;;5046029;28;20479;-77
2023/06/05 01:41:27;;;;;;;21.23;19.27;;;7.10;99.90;;;;;;5044502;28;20048;-78
2023/06/05 01:43:54;;;;;;;23.08;20.52;;;7.00;99.90;;;;;;5066883;28;20049;-78
2023/06/05 01:46:22;;;;;;;20.58;18.67;;;7.10;99.90;;;;;;5056567;28;20044;-78
2023/06/05 01:48:50;;;;;;;20.63;18.73;;;7.00;99.90;;;;;;5056190;28;20556;-78
2023/06/05 01:51:18;;;;;;;20.25;18.40;;;6.90;99.90;;;;;;5048970;28;20036;-78
2023/06/05 01:53:44;;;;;;;24.20;21.75;;;6.90;99.90;;;;;;5057000;28;20040;-77
2023/06/05 01:56:10;;;;;;;19.27;17.65;;;6.90;99.90;;;;;;5037902;28;20086;-77
2023/06/05 01:58:36;;;;;;;20.98;18.98;;;6.80;99.90;;;;;;5037415;28;20029;-78
2023/06/05 02:01:03;;;;;;;20.25;18.42;;;6.80;99.90;;;;;;5032076;28;20098;-78
2023/06/05 02:03:29;;;;;;;21.73;19.77;;;6.80;99.90;;;;;;5057052;28;20066;-78
2023/06/05 02:05:55;;;;;;;21.20;19.20;;;6.80;99.90;;;;;;5056574;28;20085;-77
2023/06/05 02:08:22;;;;;;;23.45;21.20;;;6.70;99.90;;;;;;5040335;28;20040;-77
2023/06/05 02:10:52;;;;;;;21.40;19.40;;;6.80;99.90;;;;;;5023621;28;20048;-77
2023/06/05 02:13:23;;;;;;;23.70;20.98;;;6.60;99.90;;;;;;5083806;22;20046;-76
2023/06/05 02:15:55;;;;;;;24.02;21.48;;;6.60;99.90;;;;;;5114755;27;20039;-77
2023/06/05 02:18:24;;;;;;;24.27;21.67;;;6.60;99.90;;;;;;5126779;27;20047;-76
2023/06/05 02:20:53;;;;;;;23.83;21.45;;;6.60;99.90;;;;;;5093527;27;20035;-77
2023/06/05 02:23:19;;;;;;;22.65;20.52;;;6.60;99.90;;;;;;5123974;27;20093;-77
2023/06/05 02:25:45;;;;;;;24.30;21.85;;;6.60;99.90;;;;;;5093120;28;20439;-77
2023/06/05 02:28:11;;;;;;;25.40;22.60;;;6.60;99.90;;;;;;5079080;27;20070;-77
2023/06/05 02:30:37;;;;;;;23.45;20.98;;;6.60;99.90;;;;;;5076660;28;20393;-77
2023/06/05 02:33:03;;;;;;;23.90;21.60;;;6.50;99.90;;;;;;5095681;28;20136;-76
2023/06/05 02:35:29;;;;;;;25.90;23.40;;;6.50;99.90;;;;;;5096357;28;20480;-77
2023/06/05 02:37:56;;;;;;;24.55;22.20;;;6.50;99.90;;;;;;5078085;28;20473;-76
2023/06/05 02:40:22;;;;;;;22.77;20.70;;;6.50;99.90;;;;;;5090023;28;20057;-76
2023/06/05 02:42:47;;;;;;;32.42;26.13;;;6.50;99.90;;;;;;5083937;28;20504;-76
2023/06/05 02:45:13;;;;;;;27.30;24.08;;;6.50;99.90;;;;;;5096175;28;20275;-76
2023/06/05 02:47:39;;;;;;;23.95;21.45;;;6.50;99.90;;;;;;5089067;28;20062;-76
2023/06/05 02:50:06;;;;;;;25.13;22.55;;;6.40;99.90;;;;;;5076184;28;20043;-76
2023/06/05 02:52:34;;;;;;;25.85;22.73;;;6.40;99.90;;;;;;5092683;28;20567;-76
2023/06/05 02:55:01;;;;;;;23.25;21.10;;;6.40;99.90;;;;;;5075801;28;20135;-77
2023/06/05 02:57:27;;;;;;;26.08;22.95;;;6.40;99.90;;;;;;5084950;28;20492;-76
2023/06/05 02:59:52;;;;;;;26.63;23.67;;;6.40;99.90;;;;;;5076613;28;20032;-77
2023/06/05 03:02:18;;;;;;;24.50;22.08;;;6.40;99.90;;;;;;5092556;28;20084;-76
2023/06/05 03:04:43;;;;;;;28.52;23.40;;;6.40;99.90;;;;;;5092584;28;20375;-76
2023/06/05 03:07:09;;;;;;;24.83;22.33;;;6.40;99.90;;;;;;5075474;28;20478;-76
2023/06/05 03:09:36;;;;;;;37.20;27.23;;;6.40;99.90;;;;;;5105824;28;20043;-76
2023/06/05 03:12:01;;;;;;;25.52;22.70;;;6.30;99.90;;;;;;5109396;28;20047;-76
2023/06/05 03:14:27;;;;;;;25.60;23.13;;;6.30;99.90;;;;;;5091716;28;20382;-77
2023/06/05 03:16:53;;;;;;;30.67;25.48;;;6.30;99.90;;;;;;5077787;28;20126;-77
2023/06/05 03:19:22;;;;;;;28.27;24.17;;;6.30;99.90;;;;;;5106495;28;20442;-77
2023/06/05 03:21:49;;;;;;;24.33;21.80;;;6.30;99.90;;;;;;5092589;28;20400;-76
2023/06/05 03:24:15;;;;;;;25.60;22.67;;;6.30;99.90;;;;;;5075317;27;20043;-76
2023/06/05 03:26:42;;;;;;;31.25;25.42;;;6.20;99.90;;;;;;5083687;28;20036;-77
2023/06/05 03:29:08;;;;;;;27.52;22.83;;;6.30;99.90;;;;;;5094369;28;20035;-76
2023/06/05 03:31:35;;;;;;;30.08;23.25;;;6.20;99.90;;;;;;5109246;28;20389;-76
2023/06/05 03:34:02;;;;;;;25.63;23.00;;;6.30;99.90;;;;;;5111520;28;20051;-77
2023/06/05 03:36:29;;;;;;;39.92;28.05;;;6.20;99.90;;;;;;5091588;28;20048;-77
2023/06/05 03:38:55;;;;;;;26.33;23.45;;;6.20;99.90;;;;;;5109986;28;20378;-77
2023/06/05 03:41:21;;;;;;;24.27;21.88;;;6.30;99.90;;;;;;5091326;28;20499;-76
2023/06/05 03:43:49;;;;;;;26.35;23.55;;;6.20;99.90;;;;;;5091785;28;20489;-76
2023/06/05 03:46:18;;;;;;;27.92;24.35;;;6.30;99.90;;;;;;5074859;28;20036;-76
2023/06/05 03:48:58;;;;;;;25.20;22.50;;;6.30;99.90;;;;;;5075118;28;20131;-77
2023/06/05 03:51:27;;;;;;;25.45;22.85;;;6.30;99.90;;;;;;5083161;28;20044;-77
2023/06/05 03:53:54;;;;;;;25.42;23.00;;;6.30;99.90;;;;;;5100178;28;20032;-76
2023/06/05 03:56:21;;;;;;;27.92;24.92;;;6.30;99.90;;;;;;5091130;28;20493;-77
2023/06/05 03:58:48;;;;;;;39.53;26.58;;;6.40;99.90;;;;;;5076711;28;20076;-76
2023/06/05 04:01:14;;;;;;;26.42;23.27;;;6.40;99.90;;;;;;5094773;28;20068;-76
2023/06/05 04:03:40;;;;;;;27.50;23.77;;;6.40;99.90;;;;;;5077639;28;20701;-76
2023/06/05 04:06:06;;;;;;;27.85;23.98;;;6.50;99.90;;;;;;5091095;28;20039;-76
2023/06/05 04:08:32;;;;;;;27.15;24.45;;;6.50;99.90;;;;;;5092565;27;20043;-76
2023/06/05 04:10:57;;;;;;;27.50;24.42;;;6.60;99.90;;;;;;5109870;28;20044;-76
2023/06/05 04:13:23;;;;;;;28.67;24.67;;;6.60;99.90;;;;;;5094465;28;20039;-77
2023/06/05 04:15:49;;;;;;;32.60;25.30;;;6.70;99.90;;;;;;5094426;28;20043;-76
2023/06/05 04:18:15;;;;;;;27.15;24.27;;;6.70;99.90;;;;;;5093918;28;20043;-77
2023/06/05 04:20:41;;;;;;;30.23;26.00;;;6.80;99.90;;;;;;5093823;28;20035;-77
2023/06/05 04:23:06;;;;;;;28.45;25.40;;;6.90;99.90;;;;;;5109419;28;20039;-76
2023/06/05 04:25:32;;;;;;;29.77;25.48;;;7.10;99.90;;;;;;5087214;28;20063;-77
2023/06/05 04:27:58;;;;;;;26.13;23.42;;;7.50;99.90;;;;;;5089966;28;20047;-77
2023/06/05 04:30:24;;;;;;;26.13;23.30;;;7.90;99.90;;;;;;5093528;28;20036;-77
2023/06/05 04:32:55;;;;;;;26.40;21.88;;;8.40;99.90;;;;;;5092795;28;20190;-77
2023/06/05 04:35:22;;;;;;;22.48;20.27;;;8.90;99.90;;;;;;5090904;28;20055;-77
2023/06/05 04:37:48;;;;;;;22.35;20.15;;;9.40;99.90;;;;;;5107686;28;20032;-77
2023/06/05 04:40:16;;;;;;;20.95;18.98;;;9.70;99.90;;;;;;5109942;28;20031;-77
2023/06/05 04:42:41;;;;;;;20.95;18.90;;;10.10;99.90;;;;;;5092993;28;20036;-77
2023/06/05 04:45:08;;;;;;;20.27;18.17;;;10.30;99.90;;;;;;5111175;28;20085;-78
2023/06/05 04:47:33;;;;;;;19.17;17.27;;;10.50;99.90;;;;;;5092316;28;20049;-77
2023/06/05 04:50:00;;;;;;;19.27;17.38;;;10.80;99.90;;;;;;5093716;28;20035;-77
2023/06/05 04:52:26;;;;;;;18.58;16.77;;;11.10;99.90;;;;;;5107862;28;20472;-77
2023/06/05 04:54:52;;;;;;;18.42;16.83;;;11.30;99.90;;;;;;5091808;28;20079;-77
2023/06/05 04:57:18;;;;;;;18.63;16.70;;;11.60;99.90;;;;;;5092976;28;20062;-77
2023/06/05 04:59:45;;;;;;;17.00;15.30;;;11.90;99.90;;;;;;5094717;28;20567;-77
2023/06/05 05:02:11;;;;;;;15.57;14.15;;;12.20;99.90;;;;;;5091904;28;20035;-77
2023/06/05 05:04:37;;;;;;;16.52;14.93;;;12.50;99.90;;;;;;5071149;28;20104;-77
2023/06/05 05:07:02;;;;;;;15.88;14.40;;;12.80;99.90;;;;;;5073626;28;20477;-77
2023/06/05 05:09:28;;;;;;;15.82;14.30;;;13.10;99.90;;;;;;5107276;28;20051;-78
2023/06/05 05:11:54;;;;;;;16.67;14.98;;;13.50;99.90;;;;;;5094489;28;20032;-78
2023/06/05 05:14:20;;;;;;;15.45;13.95;;;13.90;99.90;;;;;;5093292;28;20040;-77
2023/06/05 05:16:46;;;;;;;14.50;13.38;;;14.20;99.90;;;;;;5078509;28;20063;-77
2023/06/05 05:19:11;;;;;;;15.27;13.80;;;14.50;99.90;;;;;;5085325;28;20051;-77
2023/06/05 05:21:37;;;;;;;14.82;13.43;;;14.70;99.90;;;;;;5076715;28;20079;-78
2023/06/05 05:24:03;;;;;;;14.05;12.75;;;14.90;99.90;;;;;;5109950;28;20044;-77
2023/06/05 05:26:30;;;;;;;14.68;13.48;;;15.00;99.90;;;;;;5086899;28;20035;-77
2023/06/05 05:28:55;;;;;;;13.20;12.02;;;15.10;99.90;;;;;;5093074;28;20043;-77
2023/06/05 05:31:21;;;;;;;14.90;13.38;;;15.20;99.90;;;;;;5076206;28;20043;-77
2023/06/05 05:33:46;;;;;;;13.38;12.15;;;15.30;99.90;;;;;;5088343;28;20038;-77
2023/06/05 05:36:14;;;;;;;13.88;12.68;;;15.40;99.90;;;;;;5095110;28;20092;-78
2023/06/05 05:38:39;;;;;;;13.15;12.07;;;15.50;99.90;;;;;;5091280;28;20043;-78
2023/06/05 05:41:05;;;;;;;12.02;11.00;;;15.80;99.90;;;;;;5092390;28;20036;-77
2023/06/05 05:43:30;;;;;;;12.88;11.77;;;16.10;99.90;;;;;;5092588;28;20065;-79
2023/06/05 05:45:56;;;;;;;12.07;10.88;;;16.40;99.90;;;;;;5092609;28;20280;-78
2023/06/05 05:48:22;;;;;;;11.88;10.88;;;16.50;99.90;;;;;;5076158;28;20396;-78
2023/06/05 05:50:49;;;;;;;11.52;9.73;;;16.60;99.90;;;;;;5093188;28;20119;-78
2023/06/05 05:53:14;;;;;;;11.75;10.65;;;16.90;99.90;;;;;;5092268;28;20577;-78
2023/06/05 05:55:40;;;;;;;10.90;9.55;;;16.80;99.90;;;;;;5090056;28;20044;-79
2023/06/05 05:58:06;;;;;;;12.45;10.10;;;16.50;99.90;;;;;;5090299;28;20040;-78
2023/06/05 06:00:31;;;;;;;11.25;10.18;;;16.10;99.90;;;;;;5084573;28;20031;-77
2023/06/05 06:02:57;;;;;;;11.15;10.05;;;15.60;99.90;;;;;;5090228;28;20102;-78
2023/06/05 06:05:23;;;;;;;11.00;9.35;;;15.30;99.90;;;;;;5074733;28;20043;-78
2023/06/05 06:07:48;;;;;;;9.90;9.00;;;15.10;99.90;;;;;;5072659;28;20043;-79
2023/06/05 06:10:14;;;;;;;10.05;9.07;;;14.80;99.90;;;;;;5108020;28;20047;-79
2023/06/05 06:12:41;;;;;;;10.18;9.25;;;14.30;99.90;;;;;;5093310;28;20032;-79
2023/06/05 06:15:07;;;;;;;10.48;9.52;;;13.90;99.90;;;;;;5109261;27;20825;-79
2023/06/05 06:17:33;;;;;;;10.50;9.38;;;13.70;99.90;;;;;;5079895;28;20063;-79
2023/06/05 06:19:59;;;;;;;9.70;8.68;;;13.60;99.90;;;;;;5093890;28;20104;-78
2023/06/05 06:22:26;;;;;;;9.68;8.93;;;13.60;99.90;;;;;;5093676;28;20032;-80
2023/06/05 06:24:52;;;;;;;9.73;8.88;;;13.40;99.90;;;;;;5110355;28;20142;-79
2023/06/05 06:27:17;;;;;;;9.95;9.05;;;13.30;99.90;;;;;;5078984;28;20126;-79
2023/06/05 06:29:48;;;;;;;10.27;9.38;;;13.20;99.90;;;;;;5096717;28;20114;-78
2023/06/05 06:32:18;;;;;;;10.10;9.00;;;13.30;99.90;;;;;;5114070;28;20092;-79
2023/06/05 06:34:44;;;;;;;9.75;8.93;;;13.50;99.90;;;;;;5112252;28;20041;-80
2023/06/05 06:37:15;;;;;;;9.52;8.48;;;13.60;99.90;;;;;;5109766;28;20046;-78
2023/06/05 06:39:42;;;;;;;9.05;8.25;;;13.70;99.90;;;;;;5093219;28;20035;-78
2023/06/05 06:42:10;;;;;;;8.93;8.13;;;13.80;99.90;;;;;;5108709;28;20444;-79
2023/06/05 06:44:36;;;;;;;9.05;8.15;;;13.80;99.90;;;;;;5108747;28;20052;-78
2023/06/05 06:47:02;;;;;;;9.00;8.10;;;13.90;99.90;;;;;;5067658;28;20050;-78
2023/06/05 06:49:27;;;;;;;9.52;8.63;;;14.00;99.90;;;;;;5059466;28;20410;-78
2023/06/05 06:51:53;;;;;;;8.75;7.93;;;14.10;99.90;;;;;;5082882;28;20040;-78
2023/06/05 06:54:19;;;;;;;9.55;8.60;;;14.00;99.90;;;;;;5092973;28;20039;-79
2023/06/05 06:56:45;;;;;;;8.23;7.25;;;14.10;99.90;;;;;;5076078;28;20120;-80
2023/06/05 06:59:15;;;;;;;8.35;7.65;;;14.20;99.90;;;;;;5109862;28;20123;-79
2023/06/05 07:01:46;;;;;;;8.32;7.50;;;14.10;99.90;;;;;;5109750;28;20429;-78
2023/06/05 07:04:16;;;;;;;8.35;7.50;;;14.10;99.90;;;;;;5109587;28;20119;-79
2023/06/05 07:06:43;;;;;;;8.48;7.68;;;14.10;99.90;;;;;;5084607;28;20493;-78
2023/06/05 07:09:09;;;;;;;8.98;8.13;;;14.10;99.90;;;;;;5111353;27;20600;-78
2023/06/05 07:11:35;;;;;;;8.27;7.57;;;14.20;99.90;;;;;;5096549;28;20376;-78
2023/06/05 07:14:00;;;;;;;7.97;7.18;;;14.20;99.90;;;;;;5095818;28;20119;-79
2023/06/05 07:16:26;;;;;;;8.18;7.20;;;14.30;99.90;;;;;;5095644;28;20051;-78
2023/06/05 07:18:53;;;;;;;8.55;7.75;;;14.20;99.90;;;;;;5112938;28;20606;-79
2023/06/05 07:21:19;;;;;;;8.77;7.82;;;14.30;99.90;;;;;;5095399;28;20043;-79
2023/06/05 07:23:48;;;;;;;9.00;8.20;;;14.30;99.90;;;;;;5091726;28;20454;-78
2023/06/05 07:26:15;;;;;;;8.30;7.60;;;14.30;99.90;;;;;;5075282;28;20047;-79
2023/06/05 07:28:41;;;;;;;8.90;8.10;;;14.30;99.90;;;;;;5109148;28;20048;-79
2023/06/05 07:31:08;;;;;;;8.65;7.85;;;14.30;99.90;;;;;;5092574;28;20127;-78
2023/06/05 07:33:33;;;;;;;8.25;7.45;;;14.50;99.90;;;;;;5109016;28;20032;-79
2023/06/05 07:36:00;;;;;;;8.13;7.38;;;14.60;99.90;;;;;;5095076;28;20124;-78
2023/06/05 07:38:26;;;;;;;7.40;6.78;;;14.70;99.90;;;;;;5077973;28;20127;-79
2023/06/05 07:40:53;;;;;;;7.63;6.93;;;15.00;99.90;;;;;;5078755;28;20044;-78
2023/06/05 07:43:18;;;;;;;7.18;6.47;;;15.10;99.90;;;;;;5095191;28;20126;-78
2023/06/05 07:45:44;;;;;;;7.32;6.60;;;15.30;99.90;;;;;;5112592;28;20071;-79
2023/06/05 07:48:10;;;;;;;6.82;6.22;;;16.00;99.90;;;;;;5107477;28;20085;-78
2023/06/05 07:50:35;;;;;;;6.45;5.85;;;16.60;99.90;;;;;;5091858;28;20044;-79
2023/06/05 07:53:01;;;;;;;6.68;6.03;;;17.20;99.90;;;;;;5109525;28;20071;-79
2023/06/05 07:55:27;;;;;;;7.10;6.40;;;17.90;99.90;;;;;;5092239;28;20044;-79
2023/06/05 07:57:54;;;;;;;5.68;5.18;;;18.20;99.90;;;;;;5074539;28;20036;-78
2023/06/05 08:00:20;;;;;;;6.10;5.50;;;18.50;99.90;;;;;;5108986;28;20064;-79
2023/06/05 08:02:46;;;;;;;6.03;5.53;;;18.90;99.90;;;;;;5108738;28;20341;-79
2023/06/05 08:05:11;;;;;;;6.15;5.55;;;19.30;96.70;;;;;;5108733;28;20040;-78
2023/06/05 08:07:37;;;;;;;6.35;5.50;;;19.70;98.00;;;;;;5091264;28;20485;-79
2023/06/05 08:10:03;;;;;;;5.72;5.18;;;20.10;98.50;;;;;;5091542;28;20048;-79
2023/06/05 08:12:29;;;;;;;5.78;5.20;;;20.80;92.40;;;;;;5108840;28;20040;-79
2023/06/05 08:15:06;;;;;;;6.00;5.40;;;21.20;72.70;;;;;;5094061;22;20551;-78
2023/06/05 08:17:32;;;;;;;7.22;5.28;;;21.00;75.90;;;;;;5040482;28;20048;-79
2023/06/05 08:20:08;;;;;;;5.72;5.10;;;21.10;74.30;;;;;;5055871;28;20032;-79
2023/06/05 08:22:40;;;;;;;5.57;4.97;;;21.40;72.70;;;;;;5055112;28;20058;-78
2023/06/05 08:25:06;;;;;;;5.38;4.85;;;21.50;73.70;;;;;;5051311;28;20044;-79
2023/06/05 08:27:32;;;;;;;6.30;4.93;;;21.80;72.90;;;;;;5020072;28;20045;-79
2023/06/05 08:29:59;;;;;;;4.75;4.25;;;22.10;68.80;;;;;;5019541;28;20055;-79
2023/06/05 08:32:25;;;;;;;6.90;5.18;;;22.00;70.00;;;;;;5019812;28;20114;-79
2023/06/05 08:34:54;;;;;;;5.45;4.95;;;22.20;65.70;;;;;;5018979;28;20033;-78
2023/06/05 08:37:28;;;;;;;5.78;5.25;;;22.10;66.40;;;;;;5035683;28;20139;-79
2023/06/05 08:40:00;;;;;;;5.35;4.85;;;22.00;67.90;;;;;;5035274;28;20138;-78
2023/06/05 08:42:28;;;;;;;5.95;5.35;;;22.20;70.00;;;;;;5011793;28;20403;-79
2023/06/05 08:44:55;;;;;;;5.50;5.00;;;22.80;64.90;;;;;;5015802;28;20037;-79
2023/06/05 08:47:24;;;;;;;5.55;4.50;;;23.00;62.20;;;;;;4999170;28;20033;-80
2023/06/05 08:50:00;;;;;;;5.20;4.70;;;22.70;63.90;;;;;;4999779;28;20414;-79
2023/06/05 08:52:31;;;;;;;5.30;4.80;;;22.70;65.20;;;;;;5020199;28;20072;-80
2023/06/05 08:54:58;;;;;;;5.72;4.85;;;22.90;62.20;;;;;;5018827;28;20489;-78
2023/06/05 08:57:28;;;;;;;5.30;4.80;;;22.70;63.50;;;;;;5018832;28;20560;-79
2023/06/05 08:59:59;;;;;;;6.47;4.47;;;22.60;62.70;;;;;;5019109;28;20072;-78
2023/06/05 09:02:27;;;;;;;6.15;4.30;;;22.50;62.90;;;;;;5018655;28;20095;-79
2023/06/05 09:05:00;;;;;;;6.65;4.25;;;22.60;66.40;;;;;;5017282;28;20041;-78
2023/06/05 09:07:29;;;;;;;4.60;4.20;;;23.20;66.00;;;;;;5051381;28;20084;-79
2023/06/05 09:09:57;;;;;;;5.63;4.18;;;23.80;61.20;;;;;;5018530;28;20103;-79
2023/06/05 09:12:25;;;;;;;5.55;4.50;;;23.80;57.70;;;;;;5018594;28;20565;-80
2023/06/05 09:14:52;;;;;;;4.50;4.10;;;23.40;57.90;;;;;;5016016;28;20082;-79
2023/06/05 09:17:18;;;;;;;5.05;4.55;;;23.00;59.40;;;;;;5017898;28;20142;-79
2023/06/05 09:19:47;;;;;;;4.50;4.10;;;22.60;62.40;;;;;;5014962;28;20058;-79
2023/06/05 09:22:16;;;;;;;5.20;4.70;;;23.00;63.30;;;;;;5017693;28;20495;-79
2023/06/05 09:25:01;;;;;;;4.90;4.50;;;23.50;59.40;;;;;;5018224;28;20041;-80
2023/06/05 09:27:29;;;;;;;5.88;5.30;;;23.60;59.80;;;;;;5017779;28;20394;-79
2023/06/05 09:30:04;;;;;;;5.53;5.03;;;23.50;60.60;;;;;;5017983;28;20047;-80
2023/06/05 09:32:30;;;;;;;5.53;5.00;;;23.70;59.10;;;;;;5018090;28;20064;-79
2023/06/05 09:35:03;;;;;;;5.82;5.20;;;23.70;62.00;;;;;;5017811;28;20037;-79
2023/06/05 09:37:37;;;;;;;5.93;4.88;;;24.00;60.50;;;;;;5017508;28;20047;-79
2023/06/05 09:40:08;;;;;;;4.75;4.35;;;24.40;61.20;;;;;;5018048;28;20045;-79
2023/06/05 09:42:35;;;;;;;5.70;4.63;;;24.80;56.60;;;;;;5013568;28;20107;-80
2023/06/05 09:45:02;;;;;;;5.55;4.80;;;24.60;56.60;;;;;;5016935;28;20044;-79
2023/06/05 09:47:28;;;;;;;5.03;4.53;;;24.30;58.60;;;;;;5020131;28;20043;-78
2023/06/05 09:49:54;;;;;;;5.07;4.57;;;24.30;59.00;;;;;;5021951;28;20044;-79
2023/06/05 09:52:21;;;;;;;5.30;4.70;;;24.70;56.70;;;;;;5020493;28;20040;-78
2023/06/05 09:54:47;;;;;;;4.95;4.45;;;24.50;58.50;;;;;;5012654;28;20048;-78
2023/06/05 09:57:14;;;;;;;5.07;4.57;;;24.70;59.10;;;;;;5021285;28;20049;-79
2023/06/05 10:00:07;;;;;;;5.72;4.03;;;25.30;57.20;;;;;;5021283;28;20240;-79
2023/06/05 10:02:35;;;;;;;5.97;4.40;;;25.60;56.60;;;;;;5033464;28;20098;-78
2023/06/05 10:05:04;;;;;;;5.45;4.95;;;25.70;55.90;;;;;;5021414;28;20048;-79
2023/06/05 10:07:37;;;;;;;5.13;4.40;;;25.90;53.60;;;;;;5027533;28;20048;-79
2023/06/05 10:10:04;;;;;;;5.55;4.78;;;25.60;54.60;;;;;;5021452;28;20041;-79
2023/06/05 10:12:31;;;;;;;4.75;4.28;;;25.40;53.90;;;;;;5016812;28;20037;-79
2023/06/05 10:14:57;;;;;;;4.47;4.07;;;24.80;57.20;;;;;;5019432;28;20040;-78
2023/06/05 10:17:24;;;;;;;5.32;4.55;;;24.80;58.10;;;;;;5020719;28;20041;-78
2023/06/05 10:19:51;;;;;;;6.43;4.70;;;25.20;56.30;;;;;;5021503;28;20394;-79
2023/06/05 10:22:20;;;;;;;5.28;4.25;;;25.70;54.50;;;;;;5048708;28;20046;-78
2023/06/05 10:24:56;;;;;;;4.40;3.97;;;25.70;56.00;;;;;;5019247;28;20056;-79
2023/06/05 10:27:40;;;;;;;5.35;4.15;;;25.80;56.40;;;;;;5020861;28;20036;-78
2023/06/05 10:30:24;;;;;;;5.45;4.20;;;26.30;55.80;;;;;;5020817;28;20388;-79
2023/06/05 10:33:03;;;;;;;4.88;3.97;;;26.60;55.90;;;;;;5020599;28;20052;-79
2023/06/05 10:35:47;;;;;;;5.03;4.53;;;27.00;52.40;;;;;;5020468;28;20150;-79
2023/06/05 10:38:25;;;;;;;5.47;4.88;;;26.80;51.50;;;;;;5037143;28;20162;-79
2023/06/05 10:40:56;;;;;;;5.22;4.68;;;26.30;51.90;;;;;;5021025;28;20186;-78
2023/06/05 10:43:33;;;;;;;4.55;4.15;;;25.60;54.90;;;;;;5020447;28;20387;-78
2023/06/05 10:46:01;;;;;;;5.18;3.67;;;25.60;56.30;;;;;;5019679;28;20049;-78
2023/06/05 10:49:07;;;;;;;5.72;4.63;;;26.00;55.80;;;;;;5030572;28;20137;-79
2023/06/05 10:51:37;;;;;;;4.70;4.07;;;26.40;53.50;;;;;;5004467;28;20450;-78
2023/06/05 10:54:05;;;;;;;5.22;4.68;;;26.60;56.10;;;;;;5023174;28;20461;-79
2023/06/05 10:56:50;;;;;;;5.15;4.63;;;27.20;52.10;;;;;;5023327;28;20112;-79
2023/06/05 10:59:17;;;;;;;5.05;4.53;;;27.30;49.90;;;;;;5022609;28;20373;-78
2023/06/05 11:01:43;;;;;;;4.97;4.47;;;26.40;52.60;;;;;;5021268;28;20044;-78
2023/06/05 11:04:09;;;;;;;6.13;4.28;;;26.20;55.30;;;;;;5021431;28;20041;-79
2023/06/05 11:06:37;;;;;;;4.70;4.30;;;26.60;54.90;;;;;;5021568;28;20080;-78
2023/06/05 11:09:12;;;;;;;4.50;4.10;;;27.10;54.50;;;;;;5037832;28;20041;-79
2023/06/05 11:12:01;;;;;;;4.53;4.10;;;27.70;54.20;;;;;;5017145;28;20072;-79
2023/06/05 11:14:47;;;;;;;4.85;4.20;;;28.30;51.40;;;;;;5004989;28;20549;-79
2023/06/05 11:17:30;;;;;;;4.55;4.15;;;28.30;51.80;;;;;;5009148;28;20045;-78
2023/06/05 11:19:56;;;;;;;;;;;28.20;53.20;;;;;;5021938;28;20124;-79
2023/06/05 11:22:22;;;;;;;5.22;4.00;;;28.50;49.00;;;;;;5038505;28;20394;-79
2023/06/05 11:25:14;;;;;;;5.72;4.18;;;28.20;48.70;;;;;;5021562;28;20041;-79
2023/06/05 11:27:48;;;;;;;6.20;4.13;;;27.40;49.80;;;;;;5020755;28;20059;-80
2023/06/05 11:30:15;;;;;;;5.75;3.85;;;26.80;50.50;;;;;;5016361;28;20045;-79
2023/06/05 11:32:41;;;;;;;5.50;3.70;;;26.20;52.10;;;;;;5001870;28;20128;-79
2023/06/05 11:35:10;;;;;;;4.20;3.60;;;26.20;52.40;;;;;;5001156;28;20048;-79
2023/06/05 11:37:37;;;;;;;4.43;3.60;;;26.30;52.40;;;;;;5000705;28;20052;-79
2023/06/05 11:40:08;;;;;;;4.70;3.67;;;26.30;53.20;;;;;;5010355;28;20047;-79
2023/06/05 11:42:34;;;;;;;3.55;3.22;;;26.50;52.30;;;;;;5012556;28;20037;-79
2023/06/05 11:45:00;;;;;;;3.80;3.08;;;26.90;54.10;;;;;;5036505;28;20041;-79
2023/06/05 11:47:30;;;;;;;4.05;3.75;;;27.40;52.50;;;;;;5020431;28;20133;-79
2023/06/05 11:50:12;;;;;;;4.07;3.65;;;27.90;49.80;;;;;;5020428;28;20127;-79
2023/06/05 11:52:38;;;;;;;5.82;4.03;;;27.50;50.60;;;;;;5020682;28;20079;-79
2023/06/05 11:55:29;;;;;;;3.75;3.45;;;27.30;50.00;;;;;;5048096;28;20052;-79
2023/06/05 11:57:55;;;;;;;4.20;3.60;;;27.00;51.50;;;;;;5054299;28;20041;-78
2023/06/05 12:00:26;;;;;;;3.80;3.20;;;26.80;51.90;;;;;;5020227;28;20041;-78
2023/06/05 12:02:52;;;;;;;5.05;3.40;;;26.80;52.30;;;;;;5020545;28;20048;-79
2023/06/05 12:05:18;;;;;;;3.63;3.00;;;26.90;52.30;;;;;;5018708;28;20517;-79
2023/06/05 12:07:48;;;;;;;3.80;3.25;;;27.30;52.50;;;;;;5019318;28;20037;-79
2023/06/05 12:10:14;;;;;;;3.80;3.50;;;27.80;50.20;;;;;;5018480;28;20036;-79
2023/06/05 12:12:55;;;;;;;4.18;3.53;;;27.50;48.50;;;;;;5015775;28;20068;-79
2023/06/05 12:15:21;;;;;;;4.78;3.08;;;26.80;50.10;;;;;;4998848;28;20037;-78
2023/06/05 12:17:55;;;;;;;3.85;3.38;;;26.40;53.00;;;;;;5012521;28;20422;-79
2023/06/05 12:20:23;;;;;;;4.15;3.67;;;26.70;52.80;;;;;;5018711;28;20092;-80
2023/06/05 12:22:49;;;;;;;4.80;3.90;;;27.30;51.40;;;;;;5019303;28;20501;-79
2023/06/05 12:25:19;;;;;;;4.50;3.72;;;27.40;50.50;;;;;;5019079;28;20123;-80
2023/06/05 12:27:48;;;;;;;6.63;3.60;;;27.30;49.50;;;;;;5013813;28;20490;-79
2023/06/05 12:30:16;;;;;;;5.30;4.07;;;27.20;50.30;;;;;;5035677;28;20041;-79
2023/06/05 12:32:45;;;;;;;5.93;3.83;;;27.00;50.50;;;;;;5018991;28;20045;-79
2023/06/05 12:35:22;;;;;;;5.20;3.30;;;27.20;51.10;;;;;;5018189;28;20075;-79
2023/06/05 12:37:48;;;;;;;4.40;3.63;;;27.50;52.80;;;;;;5018599;28;20056;-78
2023/06/05 12:40:17;;;;;;;4.40;3.15;;;28.00;51.00;;;;;;5018012;28;20779;-78
2023/06/05 12:42:43;;;;;;;4.78;3.28;;;28.50;50.40;;;;;;5051448;28;20087;-79
2023/06/05 12:45:10;;;;;;;3.80;3.00;;;29.00;48.60;;;;;;5018429;28;20049;-79
2023/06/05 12:47:37;;;;;;;4.30;2.75;;;29.10;49.80;;;;;;5018093;28;20097;-79